sensor_id;sensor_type;location;lat;lon;timestamp;P1;durP1;ratioP1;P2;durP2;ratioP2
12059;SDS011;6091;51.432;6.880;2022-11-20T00:01:28;2.83;;;2.60;;
12059;SDS011;6091;51.432;6.880;2022-11-20T00:03:56;2.97;;;2.60;;
12059;SDS011;6091;51.432;6.880;2022-11-20T00:06:25;2.72;;;2.53;;
12059;SDS011;6091;51.432;6.880;2022-11-20T00:08:54;3.15;;;2.85;;
12059;SDS011;6091;51.432;6.880;2022-11-20T00:11:24;2.97;;;2.67;;
12059;SDS011;6091;51.432;6.880;2022-11-20T00:13:54;2.85;;;2.65;;
12059;SDS011;6091;51.432;6.880;2022-11-20T00:16:26;2.35;;;2.15;;
12059;SDS011;6091;51.432;6.880;2022-11-20T00:18:56;2.50;;;2.30;;
12059;SDS011;6091;51.432;6.880;2022-11-20T00:21:24;2.75;;;2.55;;
12059;SDS011;6091;51.432;6.880;2022-11-20T00:23:55;2.70;;;2.50;;
12059;SDS011;6091;51.432;6.880;2022-11-20T00:26:24;3.08;;;2.78;;
12059;SDS011;6091;51.432;6.880;2022-11-20T00:28:57;2.60;;;2.40;;
12059;SDS011;6091;51.432;6.880;2022-11-20T00:31:26;2.78;;;2.58;;
12059;SDS011;6091;51.432;6.880;2022-11-20T00:33:54;2.85;;;2.65;;
12059;SDS011;6091;51.432;6.880;2022-11-20T00:36:23;2.65;;;2.45;;
12059;SDS011;6091;51.432;6.880;2022-11-20T00:38:54;2.80;;;2.60;;
12059;SDS011;6091;51.432;6.880;2022-11-20T00:41:23;2.70;;;2.50;;
12059;SDS011;6091;51.432;6.880;2022-11-20T00:43:53;2.60;;;2.40;;
12059;SDS011;6091;51.432;6.880;2022-11-20T00:46:22;2.83;;;2.60;;
12059;SDS011;6091;51.432;6.880;2022-11-20T00:48:52;2.92;;;2.72;;
12059;SDS011;6091;51.432;6.880;2022-11-20T00:51:21;2.65;;;2.45;;
12059;SDS011;6091;51.432;6.880;2022-11-20T00:53:50;2.90;;;2.70;;
12059;SDS011;6091;51.432;6.880;2022-11-20T00:56:17;2.80;;;2.60;;
12059;SDS011;6091;51.432;6.880;2022-11-20T00:58:47;3.03;;;2.83;;
12059;SDS011;6091;51.432;6.880;2022-11-20T01:01:19;3.08;;;2.78;;
12059;SDS011;6091;51.432;6.880;2022-11-20T01:03:52;2.70;;;2.50;;
12059;SDS011;6091;51.432;6.880;2022-11-20T01:08:59;2.67;;;2.47;;
12059;SDS011;6091;51.432;6.880;2022-11-20T01:11:34;2.72;;;2.47;;
12059;SDS011;6091;51.432;6.880;2022-11-20T01:14:04;2.85;;;2.65;;
12059;SDS011;6091;51.432;6.880;2022-11-20T01:16:39;2.95;;;2.72;;
12059;SDS011;6091;51.432;6.880;2022-11-20T01:19:21;3.20;;;2.97;;
12059;SDS011;6091;51.432;6.880;2022-11-20T01:21:51;2.95;;;2.72;;
12059;SDS011;6091;51.432;6.880;2022-11-20T01:24:20;3.05;;;2.75;;
12059;SDS011;6091;51.432;6.880;2022-11-20T01:26:49;2.85;;;2.65;;
12059;SDS011;6091;51.432;6.880;2022-11-20T01:29:19;2.72;;;2.53;;
12059;SDS011;6091;51.432;6.880;2022-11-20T01:31:49;3.25;;;2.88;;
12059;SDS011;6091;51.432;6.880;2022-11-20T01:34:18;3.00;;;2.80;;
12059;SDS011;6091;51.432;6.880;2022-11-20T01:36:46;2.80;;;2.60;;
12059;SDS011;6091;51.432;6.880;2022-11-20T01:39:15;2.85;;;2.55;;
12059;SDS011;6091;51.432;6.880;2022-11-20T01:41:46;2.88;;;2.65;;
12059;SDS011;6091;51.432;6.880;2022-11-20T01:44:50;2.80;;;2.60;;
12059;SDS011;6091;51.432;6.880;2022-11-20T01:47:25;2.83;;;2.63;;
12059;SDS011;6091;51.432;6.880;2022-11-20T01:50:38;2.88;;;2.58;;
12059;SDS011;6091;51.432;6.880;2022-11-20T01:53:04;2.70;;;2.50;;
12059;SDS011;6091;51.432;6.880;2022-11-20T01:55:36;2.80;;;2.60;;
12059;SDS011;6091;51.432;6.880;2022-11-20T01:58:18;2.92;;;2.60;;
12059;SDS011;6091;51.432;6.880;2022-11-20T02:00:51;3.00;;;2.80;;
12059;SDS011;6091;51.432;6.880;2022-11-20T02:03:21;2.75;;;2.55;;
12059;SDS011;6091;51.432;6.880;2022-11-20T02:05:54;3.03;;;2.75;;
12059;SDS011;6091;51.432;6.880;2022-11-20T02:08:45;2.60;;;2.40;;
12059;SDS011;6091;51.432;6.880;2022-11-20T02:11:11;3.03;;;2.72;;
12059;SDS011;6091;51.432;6.880;2022-11-20T02:13:39;3.00;;;2.80;;
12059;SDS011;6091;51.432;6.880;2022-11-20T02:18:50;3.05;;;2.85;;
12059;SDS011;6091;51.432;6.880;2022-11-20T02:26:57;2.97;;;2.70;;
12059;SDS011;6091;51.432;6.880;2022-11-20T02:29:41;3.13;;;2.83;;
12059;SDS011;6091;51.432;6.880;2022-11-20T02:32:22;2.75;;;2.55;;
12059;SDS011;6091;51.432;6.880;2022-11-20T02:37:45;2.80;;;2.60;;
12059;SDS011;6091;51.432;6.880;2022-11-20T02:40:16;3.47;;;3.17;;
12059;SDS011;6091;51.432;6.880;2022-11-20T02:42:43;3.05;;;2.75;;
12059;SDS011;6091;51.432;6.880;2022-11-20T02:45:11;2.45;;;2.22;;
12059;SDS011;6091;51.432;6.880;2022-11-20T02:47:38;3.33;;;3.03;;
12059;SDS011;6091;51.432;6.880;2022-11-20T02:50:05;2.92;;;2.72;;
12059;SDS011;6091;51.432;6.880;2022-11-20T02:52:32;2.95;;;2.75;;
12059;SDS011;6091;51.432;6.880;2022-11-20T02:54:59;3.30;;;3.00;;
12059;SDS011;6091;51.432;6.880;2022-11-20T02:57:26;3.20;;;2.90;;
12059;SDS011;6091;51.432;6.880;2022-11-20T02:59:56;2.75;;;2.55;;
12059;SDS011;6091;51.432;6.880;2022-11-20T03:02:23;3.30;;;3.00;;
12059;SDS011;6091;51.432;6.880;2022-11-20T03:04:50;3.25;;;2.95;;
12059;SDS011;6091;51.432;6.880;2022-11-20T03:07:17;3.35;;;3.05;;
12059;SDS011;6091;51.432;6.880;2022-11-20T03:09:44;2.85;;;2.65;;
12059;SDS011;6091;51.432;6.880;2022-11-20T03:12:11;2.80;;;2.60;;
12059;SDS011;6091;51.432;6.880;2022-11-20T03:14:38;3.10;;;2.90;;
12059;SDS011;6091;51.432;6.880;2022-11-20T03:17:05;3.33;;;3.08;;
12059;SDS011;6091;51.432;6.880;2022-11-20T03:19:33;2.75;;;2.55;;
12059;SDS011;6091;51.432;6.880;2022-11-20T03:22:00;3.05;;;2.75;;
12059;SDS011;6091;51.432;6.880;2022-11-20T03:24:34;3.05;;;2.78;;
12059;SDS011;6091;51.432;6.880;2022-11-20T03:27:01;3.05;;;2.85;;
12059;SDS011;6091;51.432;6.880;2022-11-20T03:29:28;3.65;;;3.35;;
12059;SDS011;6091;51.432;6.880;2022-11-20T03:31:55;3.17;;;2.88;;
12059;SDS011;6091;51.432;6.880;2022-11-20T03:34:22;2.83;;;2.63;;
12059;SDS011;6091;51.432;6.880;2022-11-20T03:36:49;3.25;;;3.00;;
12059;SDS011;6091;51.432;6.880;2022-11-20T03:39:16;3.40;;;3.10;;
12059;SDS011;6091;51.432;6.880;2022-11-20T03:41:43;3.28;;;3.00;;
12059;SDS011;6091;51.432;6.880;2022-11-20T03:44:11;3.30;;;3.00;;
12059;SDS011;6091;51.432;6.880;2022-11-20T03:46:38;2.97;;;2.78;;
12059;SDS011;6091;51.432;6.880;2022-11-20T03:49:05;3.22;;;2.92;;
12059;SDS011;6091;51.432;6.880;2022-11-20T03:51:33;2.83;;;2.63;;
12059;SDS011;6091;51.432;6.880;2022-11-20T03:54:02;3.35;;;3.05;;
12059;SDS011;6091;51.432;6.880;2022-11-20T03:56:35;3.15;;;2.88;;
12059;SDS011;6091;51.432;6.880;2022-11-20T03:59:04;3.22;;;3.03;;
12059;SDS011;6091;51.432;6.880;2022-11-20T04:01:33;3.25;;;2.90;;
12059;SDS011;6091;51.432;6.880;2022-11-20T04:04:04;2.70;;;2.50;;
12059;SDS011;6091;51.432;6.880;2022-11-20T04:06:36;3.40;;;3.03;;
12059;SDS011;6091;51.432;6.880;2022-11-20T04:09:04;2.80;;;2.60;;
12059;SDS011;6091;51.432;6.880;2022-11-20T04:11:33;2.53;;;2.33;;
12059;SDS011;6091;51.432;6.880;2022-11-20T04:14:04;3.05;;;2.85;;
12059;SDS011;6091;51.432;6.880;2022-11-20T04:16:37;3.13;;;2.92;;
12059;SDS011;6091;51.432;6.880;2022-11-20T04:19:05;3.65;;;3.35;;
12059;SDS011;6091;51.432;6.880;2022-11-20T04:21:37;2.80;;;2.60;;
12059;SDS011;6091;51.432;6.880;2022-11-20T04:24:04;3.33;;;3.03;;
12059;SDS011;6091;51.432;6.880;2022-11-20T04:26:32;3.38;;;3.08;;
12059;SDS011;6091;51.432;6.880;2022-11-20T04:29:00;3.30;;;3.00;;
12059;SDS011;6091;51.432;6.880;2022-11-20T04:31:32;3.08;;;2.80;;
12059;SDS011;6091;51.432;6.880;2022-11-20T04:34:01;2.95;;;2.75;;
12059;SDS011;6091;51.432;6.880;2022-11-20T04:36:31;3.00;;;2.80;;
12059;SDS011;6091;51.432;6.880;2022-11-20T04:39:00;3.10;;;2.90;;
12059;SDS011;6091;51.432;6.880;2022-11-20T04:41:31;3.30;;;3.00;;
12059;SDS011;6091;51.432;6.880;2022-11-20T04:44:02;3.08;;;2.78;;
12059;SDS011;6091;51.432;6.880;2022-11-20T04:46:33;3.67;;;3.38;;
12059;SDS011;6091;51.432;6.880;2022-11-20T04:49:06;3.08;;;2.88;;
12059;SDS011;6091;51.432;6.880;2022-11-20T04:51:33;3.50;;;3.20;;
12059;SDS011;6091;51.432;6.880;2022-11-20T04:54:01;3.28;;;2.97;;
12059;SDS011;6091;51.432;6.880;2022-11-20T04:56:28;3.30;;;3.00;;
12059;SDS011;6091;51.432;6.880;2022-11-20T04:58:55;3.33;;;3.03;;
12059;SDS011;6091;51.432;6.880;2022-11-20T05:01:27;3.10;;;2.85;;
12059;SDS011;6091;51.432;6.880;2022-11-20T05:03:54;3.00;;;2.70;;
12059;SDS011;6091;51.432;6.880;2022-11-20T05:06:21;3.55;;;3.25;;
12059;SDS011;6091;51.432;6.880;2022-11-20T05:08:55;4.10;;;3.80;;
12059;SDS011;6091;51.432;6.880;2022-11-20T05:11:22;3.40;;;3.10;;
12059;SDS011;6091;51.432;6.880;2022-11-20T05:13:50;3.25;;;2.95;;
12059;SDS011;6091;51.432;6.880;2022-11-20T05:16:19;3.65;;;3.35;;
12059;SDS011;6091;51.432;6.880;2022-11-20T05:18:49;2.90;;;2.63;;
12059;SDS011;6091;51.432;6.880;2022-11-20T05:21:18;3.65;;;3.35;;
12059;SDS011;6091;51.432;6.880;2022-11-20T05:23:45;3.30;;;3.00;;
12059;SDS011;6091;51.432;6.880;2022-11-20T05:26:13;3.40;;;3.10;;
12059;SDS011;6091;51.432;6.880;2022-11-20T05:28:47;3.00;;;2.80;;
12059;SDS011;6091;51.432;6.880;2022-11-20T05:31:19;3.30;;;3.00;;
12059;SDS011;6091;51.432;6.880;2022-11-20T05:33:53;3.10;;;2.80;;
12059;SDS011;6091;51.432;6.880;2022-11-20T05:36:23;3.30;;;3.00;;
12059;SDS011;6091;51.432;6.880;2022-11-20T05:38:52;3.53;;;3.22;;
12059;SDS011;6091;51.432;6.880;2022-11-20T05:41:26;3.20;;;2.90;;
12059;SDS011;6091;51.432;6.880;2022-11-20T05:43:53;3.33;;;3.00;;
12059;SDS011;6091;51.432;6.880;2022-11-20T05:46:22;3.50;;;3.20;;
12059;SDS011;6091;51.432;6.880;2022-11-20T05:48:54;3.13;;;2.90;;
12059;SDS011;6091;51.432;6.880;2022-11-20T05:51:22;3.53;;;3.22;;
12059;SDS011;6091;51.432;6.880;2022-11-20T05:53:50;3.20;;;2.97;;
12059;SDS011;6091;51.432;6.880;2022-11-20T05:56:18;3.20;;;2.90;;
12059;SDS011;6091;51.432;6.880;2022-11-20T05:58:47;3.30;;;2.95;;
12059;SDS011;6091;51.432;6.880;2022-11-20T06:01:17;3.17;;;2.95;;
12059;SDS011;6091;51.432;6.880;2022-11-20T06:03:51;3.25;;;3.05;;
12059;SDS011;6091;51.432;6.880;2022-11-20T06:06:20;3.38;;;3.08;;
12059;SDS011;6091;51.432;6.880;2022-11-20T06:08:48;3.13;;;2.92;;
12059;SDS011;6091;51.432;6.880;2022-11-20T06:11:15;3.95;;;2.90;;
12059;SDS011;6091;51.432;6.880;2022-11-20T06:13:43;3.08;;;2.83;;
12059;SDS011;6091;51.432;6.880;2022-11-20T06:16:12;3.05;;;2.80;;
12059;SDS011;6091;51.432;6.880;2022-11-20T06:18:42;2.80;;;2.60;;
12059;SDS011;6091;51.432;6.880;2022-11-20T06:21:10;3.17;;;2.90;;
12059;SDS011;6091;51.432;6.880;2022-11-20T06:23:46;2.97;;;2.75;;
12059;SDS011;6091;51.432;6.880;2022-11-20T06:26:15;3.20;;;2.90;;
12059;SDS011;6091;51.432;6.880;2022-11-20T06:28:45;3.28;;;2.97;;
12059;SDS011;6091;51.432;6.880;2022-11-20T06:31:13;3.22;;;3.03;;
12059;SDS011;6091;51.432;6.880;2022-11-20T06:33:43;3.30;;;2.97;;
12059;SDS011;6091;51.432;6.880;2022-11-20T06:36:12;3.13;;;2.88;;
12059;SDS011;6091;51.432;6.880;2022-11-20T06:38:42;2.90;;;2.70;;
12059;SDS011;6091;51.432;6.880;2022-11-20T06:41:13;3.40;;;3.10;;
12059;SDS011;6091;51.432;6.880;2022-11-20T06:43:43;3.40;;;3.10;;
12059;SDS011;6091;51.432;6.880;2022-11-20T06:46:11;2.80;;;2.60;;
12059;SDS011;6091;51.432;6.880;2022-11-20T06:48:43;3.15;;;2.88;;
12059;SDS011;6091;51.432;6.880;2022-11-20T06:51:11;3.00;;;2.70;;
12059;SDS011;6091;51.432;6.880;2022-11-20T06:53:39;3.25;;;3.05;;
12059;SDS011;6091;51.432;6.880;2022-11-20T06:56:06;3.25;;;2.92;;
12059;SDS011;6091;51.432;6.880;2022-11-20T06:58:34;2.90;;;2.70;;
12059;SDS011;6091;51.432;6.880;2022-11-20T07:01:04;3.03;;;2.80;;
12059;SDS011;6091;51.432;6.880;2022-11-20T07:03:35;3.20;;;2.90;;
12059;SDS011;6091;51.432;6.880;2022-11-20T07:06:02;3.20;;;3.00;;
12059;SDS011;6091;51.432;6.880;2022-11-20T07:08:31;3.45;;;3.15;;
12059;SDS011;6091;51.432;6.880;2022-11-20T07:10:59;3.17;;;2.88;;
12059;SDS011;6091;51.432;6.880;2022-11-20T07:13:29;3.28;;;2.97;;
12059;SDS011;6091;51.432;6.880;2022-11-20T07:16:04;3.03;;;2.83;;
12059;SDS011;6091;51.432;6.880;2022-11-20T07:18:34;3.20;;;2.90;;
12059;SDS011;6091;51.432;6.880;2022-11-20T07:21:02;3.15;;;2.85;;
12059;SDS011;6091;51.432;6.880;2022-11-20T07:23:33;2.92;;;2.72;;
12059;SDS011;6091;51.432;6.880;2022-11-20T07:26:07;3.50;;;3.20;;
12059;SDS011;6091;51.432;6.880;2022-11-20T07:28:36;2.97;;;2.75;;
12059;SDS011;6091;51.432;6.880;2022-11-20T07:31:04;3.03;;;2.83;;
12059;SDS011;6091;51.432;6.880;2022-11-20T07:33:33;2.90;;;2.70;;
12059;SDS011;6091;51.432;6.880;2022-11-20T07:36:00;3.22;;;2.88;;
12059;SDS011;6091;51.432;6.880;2022-11-20T07:38:28;3.10;;;2.90;;
12059;SDS011;6091;51.432;6.880;2022-11-20T07:40:55;2.80;;;2.60;;
12059;SDS011;6091;51.432;6.880;2022-11-20T07:43:29;3.50;;;3.20;;
12059;SDS011;6091;51.432;6.880;2022-11-20T07:45:59;3.00;;;2.80;;
12059;SDS011;6091;51.432;6.880;2022-11-20T07:48:26;3.42;;;3.05;;
12059;SDS011;6091;51.432;6.880;2022-11-20T07:50:54;3.80;;;3.50;;
12059;SDS011;6091;51.432;6.880;2022-11-20T07:53:24;3.08;;;2.88;;
12059;SDS011;6091;51.432;6.880;2022-11-20T07:55:51;2.88;;;2.67;;
12059;SDS011;6091;51.432;6.880;2022-11-20T07:58:21;2.80;;;2.60;;
12059;SDS011;6091;51.432;6.880;2022-11-20T08:00:48;3.25;;;2.95;;
12059;SDS011;6091;51.432;6.880;2022-11-20T08:03:15;3.03;;;2.78;;
12059;SDS011;6091;51.432;6.880;2022-11-20T08:05:49;3.40;;;3.10;;
12059;SDS011;6091;51.432;6.880;2022-11-20T08:08:16;2.70;;;2.50;;
12059;SDS011;6091;51.432;6.880;2022-11-20T08:10:43;2.80;;;2.60;;
12059;SDS011;6091;51.432;6.880;2022-11-20T08:13:10;2.95;;;2.75;;
12059;SDS011;6091;51.432;6.880;2022-11-20T08:15:56;2.85;;;2.65;;
12059;SDS011;6091;51.432;6.880;2022-11-20T08:18:25;2.90;;;2.70;;
12059;SDS011;6091;51.432;6.880;2022-11-20T08:21:00;3.80;;;3.50;;
12059;SDS011;6091;51.432;6.880;2022-11-20T08:23:30;3.03;;;2.83;;
12059;SDS011;6091;51.432;6.880;2022-11-20T08:25:57;2.85;;;2.65;;
12059;SDS011;6091;51.432;6.880;2022-11-20T08:28:24;3.08;;;2.85;;
12059;SDS011;6091;51.432;6.880;2022-11-20T08:30:51;2.95;;;2.75;;
12059;SDS011;6091;51.432;6.880;2022-11-20T08:33:30;2.83;;;2.63;;
12059;SDS011;6091;51.432;6.880;2022-11-20T08:35:59;3.22;;;2.97;;
12059;SDS011;6091;51.432;6.880;2022-11-20T08:38:29;3.03;;;2.78;;
12059;SDS011;6091;51.432;6.880;2022-11-20T08:40:57;3.10;;;2.90;;
12059;SDS011;6091;51.432;6.880;2022-11-20T08:43:58;2.90;;;2.70;;
12059;SDS011;6091;51.432;6.880;2022-11-20T08:46:30;3.00;;;2.75;;
12059;SDS011;6091;51.432;6.880;2022-11-20T08:49:08;2.88;;;2.67;;
12059;SDS011;6091;51.432;6.880;2022-11-20T08:51:37;3.03;;;2.83;;
12059;SDS011;6091;51.432;6.880;2022-11-20T08:54:05;2.95;;;2.75;;
12059;SDS011;6091;51.432;6.880;2022-11-20T08:56:33;2.85;;;2.65;;
12059;SDS011;6091;51.432;6.880;2022-11-20T08:59:01;2.78;;;2.58;;
12059;SDS011;6091;51.432;6.880;2022-11-20T09:01:48;3.13;;;2.85;;
12059;SDS011;6091;51.432;6.880;2022-11-20T09:04:15;2.88;;;2.67;;
12059;SDS011;6091;51.432;6.880;2022-11-20T09:06:42;3.10;;;2.90;;
12059;SDS011;6091;51.432;6.880;2022-11-20T09:09:09;3.22;;;3.03;;
12059;SDS011;6091;51.432;6.880;2022-11-20T09:11:36;3.15;;;2.85;;
12059;SDS011;6091;51.432;6.880;2022-11-20T09:14:03;3.42;;;3.13;;
12059;SDS011;6091;51.432;6.880;2022-11-20T09:16:30;3.10;;;2.80;;
12059;SDS011;6091;51.432;6.880;2022-11-20T09:18:57;4.10;;;2.97;;
12059;SDS011;6091;51.432;6.880;2022-11-20T09:21:44;2.85;;;2.65;;
12059;SDS011;6091;51.432;6.880;2022-11-20T09:24:11;2.90;;;2.70;;
12059;SDS011;6091;51.432;6.880;2022-11-20T09:26:38;3.70;;;3.22;;
12059;SDS011;6091;51.432;6.880;2022-11-20T09:29:05;2.97;;;2.78;;
12059;SDS011;6091;51.432;6.880;2022-11-20T09:31:35;3.10;;;2.80;;
12059;SDS011;6091;51.432;6.880;2022-11-20T09:34:02;3.35;;;3.05;;
12059;SDS011;6091;51.432;6.880;2022-11-20T09:36:29;3.25;;;2.92;;
12059;SDS011;6091;51.432;6.880;2022-11-20T09:38:56;3.10;;;2.83;;
12059;SDS011;6091;51.432;6.880;2022-11-20T09:46:59;3.00;;;2.70;;
12059;SDS011;6091;51.432;6.880;2022-11-20T09:49:55;2.85;;;2.58;;
12059;SDS011;6091;51.432;6.880;2022-11-20T09:55:54;3.30;;;2.67;;
12059;SDS011;6091;51.432;6.880;2022-11-20T09:58:28;3.40;;;2.67;;
12059;SDS011;6091;51.432;6.880;2022-11-20T10:01:15;2.78;;;2.58;;
12059;SDS011;6091;51.432;6.880;2022-11-20T10:03:48;2.90;;;2.70;;
12059;SDS011;6091;51.432;6.880;2022-11-20T10:06:33;3.13;;;2.90;;
12059;SDS011;6091;51.432;6.880;2022-11-20T10:09:37;3.15;;;2.85;;
12059;SDS011;6091;51.432;6.880;2022-11-20T10:12:15;3.28;;;2.90;;
12059;SDS011;6091;51.432;6.880;2022-11-20T10:18:36;2.65;;;2.45;;
12059;SDS011;6091;51.432;6.880;2022-11-20T10:30:14;2.78;;;2.58;;
12059;SDS011;6091;51.432;6.880;2022-11-20T10:32:52;3.20;;;2.90;;
12059;SDS011;6091;51.432;6.880;2022-11-20T10:38:20;2.78;;;2.58;;
12059;SDS011;6091;51.432;6.880;2022-11-20T10:41:00;2.70;;;2.50;;
12059;SDS011;6091;51.432;6.880;2022-11-20T10:43:49;2.53;;;2.33;;
12059;SDS011;6091;51.432;6.880;2022-11-20T10:47:21;2.35;;;2.15;;
12059;SDS011;6091;51.432;6.880;2022-11-20T10:49:49;2.88;;;2.65;;
12059;SDS011;6091;51.432;6.880;2022-11-20T11:03:52;2.47;;;2.28;;
12059;SDS011;6091;51.432;6.880;2022-11-20T11:06:25;4.15;;;2.90;;
12059;SDS011;6091;51.432;6.880;2022-11-20T11:09:10;3.78;;;2.70;;
12059;SDS011;6091;51.432;6.880;2022-11-20T11:11:48;2.50;;;2.30;;
12059;SDS011;6091;51.432;6.880;2022-11-20T11:14:15;7.65;;;3.00;;
12059;SDS011;6091;51.432;6.880;2022-11-20T11:16:55;3.72;;;2.53;;
12059;SDS011;6091;51.432;6.880;2022-11-20T11:19:24;2.42;;;2.15;;
12059;SDS011;6091;51.432;6.880;2022-11-20T11:21:52;2.65;;;2.45;;
12059;SDS011;6091;51.432;6.880;2022-11-20T11:24:23;3.95;;;2.50;;
12059;SDS011;6091;51.432;6.880;2022-11-20T11:27:12;3.00;;;2.45;;
12059;SDS011;6091;51.432;6.880;2022-11-20T11:29:44;3.10;;;2.75;;
12059;SDS011;6091;51.432;6.880;2022-11-20T11:32:17;2.95;;;2.20;;
12059;SDS011;6091;51.432;6.880;2022-11-20T11:35:03;2.88;;;2.40;;
12059;SDS011;6091;51.432;6.880;2022-11-20T11:37:38;3.20;;;2.90;;
12059;SDS011;6091;51.432;6.880;2022-11-20T11:40:06;3.75;;;2.60;;
12059;SDS011;6091;51.432;6.880;2022-11-20T11:43:04;2.60;;;2.40;;
12059;SDS011;6091;51.432;6.880;2022-11-20T11:46:03;2.63;;;2.42;;
12059;SDS011;6091;51.432;6.880;2022-11-20T11:51:41;2.80;;;2.60;;
12059;SDS011;6091;51.432;6.880;2022-11-20T11:57:39;2.40;;;2.20;;
12059;SDS011;6091;51.432;6.880;2022-11-20T12:00:21;2.38;;;2.17;;
12059;SDS011;6091;51.432;6.880;2022-11-20T12:02:53;2.65;;;2.45;;
12059;SDS011;6091;51.432;6.880;2022-11-20T12:05:48;3.78;;;2.15;;
12059;SDS011;6091;51.432;6.880;2022-11-20T12:08:29;2.60;;;2.10;;
12059;SDS011;6091;51.432;6.880;2022-11-20T12:11:13;2.60;;;2.40;;
12059;SDS011;6091;51.432;6.880;2022-11-20T12:14:19;3.53;;;2.70;;
12059;SDS011;6091;51.432;6.880;2022-11-20T12:16:56;3.70;;;2.60;;
12059;SDS011;6091;51.432;6.880;2022-11-20T12:19:23;2.35;;;2.00;;
12059;SDS011;6091;51.432;6.880;2022-11-20T12:22:12;2.70;;;2.50;;
12059;SDS011;6091;51.432;6.880;2022-11-20T12:25:08;3.75;;;2.70;;
12059;SDS011;6091;51.432;6.880;2022-11-20T12:33:44;3.33;;;1.90;;
12059;SDS011;6091;51.432;6.880;2022-11-20T12:42:18;2.30;;;2.10;;
12059;SDS011;6091;51.432;6.880;2022-11-20T12:57:18;2.08;;;1.98;;
12059;SDS011;6091;51.432;6.880;2022-11-20T13:00:14;2.38;;;2.03;;
12059;SDS011;6091;51.432;6.880;2022-11-20T13:08:41;2.78;;;2.47;;
12059;SDS011;6091;51.432;6.880;2022-11-20T13:11:36;2.60;;;2.40;;
12059;SDS011;6091;51.432;6.880;2022-11-20T13:17:11;3.50;;;2.15;;
12059;SDS011;6091;51.432;6.880;2022-11-20T13:20:02;2.20;;;2.00;;
12059;SDS011;6091;51.432;6.880;2022-11-20T13:22:47;2.35;;;2.15;;
12059;SDS011;6091;51.432;6.880;2022-11-20T13:25:35;4.28;;;2.40;;
12059;SDS011;6091;51.432;6.880;2022-11-20T13:30:59;2.15;;;2.00;;
12059;SDS011;6091;51.432;6.880;2022-11-20T13:33:32;2.10;;;1.90;;
12059;SDS011;6091;51.432;6.880;2022-11-20T13:36:05;2.20;;;2.10;;
12059;SDS011;6091;51.432;6.880;2022-11-20T13:38:47;2.60;;;2.40;;
12059;SDS011;6091;51.432;6.880;2022-11-20T13:41:38;6.38;;;2.35;;
12059;SDS011;6091;51.432;6.880;2022-11-20T13:46:37;2.10;;;2.00;;
12059;SDS011;6091;51.432;6.880;2022-11-20T13:49:27;2.17;;;2.08;;
12059;SDS011;6091;51.432;6.880;2022-11-20T13:55:31;2.50;;;2.30;;
12059;SDS011;6091;51.432;6.880;2022-11-20T14:01:15;2.67;;;2.00;;
12059;SDS011;6091;51.432;6.880;2022-11-20T14:03:46;2.22;;;1.85;;
12059;SDS011;6091;51.432;6.880;2022-11-20T14:06:38;2.60;;;2.25;;
12059;SDS011;6091;51.432;6.880;2022-11-20T14:09:12;4.30;;;2.47;;
12059;SDS011;6091;51.432;6.880;2022-11-20T14:11:55;2.78;;;2.28;;
12059;SDS011;6091;51.432;6.880;2022-11-20T14:14:24;2.42;;;2.22;;
12059;SDS011;6091;51.432;6.880;2022-11-20T14:17:07;2.28;;;2.08;;
12059;SDS011;6091;51.432;6.880;2022-11-20T14:19:47;2.75;;;2.45;;
12059;SDS011;6091;51.432;6.880;2022-11-20T14:22:26;4.72;;;2.20;;
12059;SDS011;6091;51.432;6.880;2022-11-20T14:25:18;2.60;;;2.40;;
12059;SDS011;6091;51.432;6.880;2022-11-20T14:27:53;4.35;;;2.40;;
12059;SDS011;6091;51.432;6.880;2022-11-20T14:30:27;2.55;;;2.20;;
12059;SDS011;6091;51.432;6.880;2022-11-20T14:33:13;2.38;;;2.15;;
12059;SDS011;6091;51.432;6.880;2022-11-20T14:35:48;2.88;;;2.22;;
12059;SDS011;6091;51.432;6.880;2022-11-20T14:38:23;2.20;;;2.05;;
12059;SDS011;6091;51.432;6.880;2022-11-20T14:40:53;2.35;;;2.13;;
12059;SDS011;6091;51.432;6.880;2022-11-20T14:43:31;2.53;;;2.30;;
12059;SDS011;6091;51.432;6.880;2022-11-20T14:46:00;2.05;;;1.95;;
12059;SDS011;6091;51.432;6.880;2022-11-20T14:48:55;2.00;;;1.90;;
12059;SDS011;6091;51.432;6.880;2022-11-20T14:51:29;2.08;;;1.90;;
12059;SDS011;6091;51.432;6.880;2022-11-20T14:56:55;2.40;;;2.20;;
12059;SDS011;6091;51.432;6.880;2022-11-20T14:59:30;2.20;;;2.10;;
12059;SDS011;6091;51.432;6.880;2022-11-20T15:02:06;1.98;;;1.88;;
12059;SDS011;6091;51.432;6.880;2022-11-20T15:04:50;2.20;;;1.98;;
12059;SDS011;6091;51.432;6.880;2022-11-20T15:07:29;2.90;;;2.00;;
12059;SDS011;6091;51.432;6.880;2022-11-20T15:10:03;2.10;;;2.00;;
12059;SDS011;6091;51.432;6.880;2022-11-20T15:12:38;1.90;;;1.80;;
12059;SDS011;6091;51.432;6.880;2022-11-20T15:15:25;2.60;;;2.40;;
12059;SDS011;6091;51.432;6.880;2022-11-20T15:18:02;2.38;;;2.17;;
12059;SDS011;6091;51.432;6.880;2022-11-20T15:20:31;2.92;;;2.63;;
12059;SDS011;6091;51.432;6.880;2022-11-20T15:22:59;2.75;;;2.55;;
12059;SDS011;6091;51.432;6.880;2022-11-20T15:25:26;2.70;;;2.50;;
12059;SDS011;6091;51.432;6.880;2022-11-20T15:27:55;2.17;;;1.98;;
12059;SDS011;6091;51.432;6.880;2022-11-20T15:30:23;2.47;;;2.28;;
12059;SDS011;6091;51.432;6.880;2022-11-20T15:32:50;2.30;;;2.10;;
12059;SDS011;6091;51.432;6.880;2022-11-20T15:35:17;2.60;;;2.33;;
12059;SDS011;6091;51.432;6.880;2022-11-20T15:37:44;2.92;;;2.53;;
12059;SDS011;6091;51.432;6.880;2022-11-20T15:40:11;2.35;;;2.17;;
12059;SDS011;6091;51.432;6.880;2022-11-20T15:42:39;2.63;;;2.30;;
12059;SDS011;6091;51.432;6.880;2022-11-20T15:45:26;2.35;;;2.15;;
12059;SDS011;6091;51.432;6.880;2022-11-20T15:47:57;2.10;;;2.00;;
12059;SDS011;6091;51.432;6.880;2022-11-20T15:50:27;2.50;;;2.30;;
12059;SDS011;6091;51.432;6.880;2022-11-20T15:53:02;2.40;;;2.20;;
12059;SDS011;6091;51.432;6.880;2022-11-20T15:55:30;2.97;;;2.67;;
12059;SDS011;6091;51.432;6.880;2022-11-20T15:57:58;2.42;;;2.22;;
12059;SDS011;6091;51.432;6.880;2022-11-20T16:00:25;3.08;;;2.17;;
12059;SDS011;6091;51.432;6.880;2022-11-20T16:02:52;2.65;;;2.40;;
12059;SDS011;6091;51.432;6.880;2022-11-20T16:05:19;2.40;;;2.20;;
12059;SDS011;6091;51.432;6.880;2022-11-20T16:07:49;2.60;;;2.40;;
12059;SDS011;6091;51.432;6.880;2022-11-20T16:10:17;2.42;;;2.28;;
12059;SDS011;6091;51.432;6.880;2022-11-20T16:12:45;2.58;;;2.22;;
12059;SDS011;6091;51.432;6.880;2022-11-20T16:15:30;2.40;;;2.20;;
12059;SDS011;6091;51.432;6.880;2022-11-20T16:18:16;2.65;;;2.30;;
12059;SDS011;6091;51.432;6.880;2022-11-20T16:20:46;2.60;;;2.40;;
12059;SDS011;6091;51.432;6.880;2022-11-20T16:23:16;2.05;;;1.85;;
12059;SDS011;6091;51.432;6.880;2022-11-20T16:25:44;2.17;;;2.00;;
12059;SDS011;6091;51.432;6.880;2022-11-20T16:28:11;2.40;;;2.20;;
12059;SDS011;6091;51.432;6.880;2022-11-20T16:30:44;2.50;;;2.30;;
12059;SDS011;6091;51.432;6.880;2022-11-20T16:33:12;2.50;;;2.30;;
12059;SDS011;6091;51.432;6.880;2022-11-20T16:35:43;2.58;;;2.38;;
12059;SDS011;6091;51.432;6.880;2022-11-20T16:38:10;2.72;;;2.53;;
12059;SDS011;6091;51.432;6.880;2022-11-20T16:40:37;2.22;;;2.03;;
12059;SDS011;6091;51.432;6.880;2022-11-20T16:43:08;2.30;;;2.13;;
12059;SDS011;6091;51.432;6.880;2022-11-20T16:45:42;2.60;;;2.40;;
12059;SDS011;6091;51.432;6.880;2022-11-20T16:48:11;3.17;;;2.50;;
12059;SDS011;6091;51.432;6.880;2022-11-20T16:50:50;2.60;;;2.40;;
12059;SDS011;6091;51.432;6.880;2022-11-20T16:53:20;2.60;;;2.40;;
12059;SDS011;6091;51.432;6.880;2022-11-20T16:55:48;2.70;;;2.50;;
12059;SDS011;6091;51.432;6.880;2022-11-20T16:58:15;2.38;;;2.22;;
12059;SDS011;6091;51.432;6.880;2022-11-20T17:00:42;2.92;;;2.45;;
12059;SDS011;6091;51.432;6.880;2022-11-20T17:03:16;2.95;;;2.75;;
12059;SDS011;6091;51.432;6.880;2022-11-20T17:05:44;3.40;;;2.42;;
12059;SDS011;6091;51.432;6.880;2022-11-20T17:08:11;2.60;;;2.40;;
12059;SDS011;6091;51.432;6.880;2022-11-20T17:10:38;2.40;;;2.20;;
12059;SDS011;6091;51.432;6.880;2022-11-20T17:13:04;2.58;;;2.38;;
12059;SDS011;6091;51.432;6.880;2022-11-20T17:15:31;2.80;;;2.47;;
12059;SDS011;6091;51.432;6.880;2022-11-20T17:17:59;3.03;;;2.30;;